Fonvind — JWYN — position and weather

sailwx.info

Track history (hours):
 
Tides and Currents Weather Stations Pressure Air Temp Water Temp Dewpoint Dewpoint Depression Visibility Wind Speed Wind Dir Waves Ship Positions

Fonvind

Last reported at 2017-Jun-28 21:00 UTC. Time now 2017-Jun-28 21:00 UTC.
Position N 65°27' E 012°34'.

Length 34 m; draft 3.5 m.

Type: Cargo ship. MMSI: 257322400.

Date/timePositionNaut miles runAvg speedWind from/ knotsBaromVisibWave heightAir tempDewpointWater temp
2017-Jun-28 21:00N 65°27' E 012°34'0 0.0
2017-Jun-28 20:30N 65°27' E 012°34'0 0.0
2017-Jun-28 20:00N 65°27' E 012°34'0 0.0
2017-Jun-28 19:30N 65°27' E 012°34'0 0.0
2017-Jun-28 19:00N 65°27' E 012°34'0 0.0
2017-Jun-28 18:30N 65°27' E 012°34'0 0.1
2017-Jun-28 17:59N 65°27' E 012°34'0 0.0
2017-Jun-28 17:30N 65°27' E 012°34'0 0.0
2017-Jun-28 17:00N 65°27' E 012°34'0 0.0
2017-Jun-28 16:30N 65°27' E 012°34'0 0.1
2017-Jun-28 16:00N 65°27' E 012°34'0 0.0
2017-Jun-28 15:30N 65°27' E 012°34'0 0.0
2017-Jun-28 15:00N 65°27' E 012°34'0 0.0
2017-Jun-28 14:29N 65°27' E 012°34'0 0.0
2017-Jun-28 13:30N 65°27' E 012°34'0 0.0
2017-Jun-28 13:00N 65°27' E 012°34'0 0.0
2017-Jun-28 12:30N 65°27' E 012°34'0 0.0
2017-Jun-28 12:00N 65°27' E 012°34'0 0.1
2017-Jun-28 11:30N 65°27' E 012°34'0 0.0
2017-Jun-28 11:00N 65°27' E 012°34'0 0.0
2017-Jun-28 10:30N 65°27' E 012°34'0 0.0
2017-Jun-28 10:00N 65°27' E 012°34'0 0.0
2017-Jun-28 09:30N 65°27' E 012°34'5 9.0
2017-Jun-28 09:00N 65°30' E 012°27'5 9.2
2017-Jun-28 08:30N 65°35' E 012°22'5 9.5
2017-Jun-28 08:00N 65°39' E 012°17'5 9.9
2017-Jun-28 07:30N 65°44' E 012°17'510.5
2017-Jun-28 07:00N 65°49' E 012°21'510.5
2017-Jun-28 06:30N 65°54' E 012°22'510.4
2017-Jun-28 05:59N 65°59' E 012°24'1 2.9
2017-Jun-28 05:30N 66°01' E 012°23'0 0.0
2017-Jun-28 05:00N 66°01' E 012°23'0 0.0
2017-Jun-28 04:30N 66°01' E 012°23'0 0.0
2017-Jun-28 04:00N 66°01' E 012°23'0 0.0
2017-Jun-28 03:30N 66°01' E 012°23'0 0.0
2017-Jun-28 03:00N 66°01' E 012°23'0 0.0
2017-Jun-28 02:30N 66°01' E 012°23'0 0.0
2017-Jun-28 02:00N 66°01' E 012°23'0 0.0
2017-Jun-28 01:30N 66°01' E 012°23'0 0.0
2017-Jun-28 01:00N 66°01' E 012°23'0 0.0
2017-Jun-28 00:30N 66°01' E 012°23'0 0.0
2017-Jun-28 00:00N 66°01' E 012°23'0 0.0
2017-Jun-27 23:30N 66°01' E 012°23'0 0.0
2017-Jun-27 23:00N 66°01' E 012°23'0 0.0
2017-Jun-27 22:30N 66°01' E 012°23'0 0.0
2017-Jun-27 22:00N 66°01' E 012°23'0 0.0
2017-Jun-27 21:30N 66°01' E 012°23'0 0.0
2017-Jun-27 21:00N 66°01' E 012°23'0 0.0
2017-Jun-27 20:30N 66°01' E 012°23'0 0.0
2017-Jun-27 20:00N 66°01' E 012°23'0 0.0
2017-Jun-27 19:30N 66°01' E 012°23'0 0.0
2017-Jun-27 18:59N 66°01' E 012°23'2 3.2
2017-Jun-27 18:30N 65°59' E 012°24'5 9.4
2017-Jun-27 18:00N 65°54' E 012°22'4 8.9
2017-Jun-27 17:30N 65°50' E 012°22'5 9.4
2017-Jun-27 17:00N 65°45' E 012°19'5 9.4
2017-Jun-27 16:30N 65°41' E 012°17'4 8.9
2017-Jun-27 16:00N 65°37' E 012°20'4 8.9
2017-Jun-27 15:30N 65°32' E 012°23'4 7.6
2017-Jun-27 15:00N 65°31' E 012°32'0 0.4
2017-Jun-27 14:00N 65°31' E 012°33'0 0.0
2017-Jun-27 13:30N 65°31' E 012°33'0 0.2
2017-Jun-27 13:00N 65°32' E 012°33'0 0.0
2017-Jun-27 12:29N 65°32' E 012°33'0 0.0
2017-Jun-27 12:00N 65°32' E 012°33'0 0.0
2017-Jun-27 11:30N 65°32' E 012°33'0 0.0
2017-Jun-27 11:00N 65°32' E 012°33'0 0.1
2017-Jun-27 10:29N 65°32' E 012°33'0 0.0
2017-Jun-27 10:00N 65°32' E 012°33'0 0.0
2017-Jun-27 09:30N 65°32' E 012°33'0 0.0
2017-Jun-27 09:00N 65°32' E 012°33'0 0.1
2017-Jun-27 08:30N 65°31' E 012°33'0 0.0
2017-Jun-27 08:00N 65°31' E 012°33'0 0.0
2017-Jun-27 07:30N 65°31' E 012°33'0 0.0
2017-Jun-27 06:59N 65°31' E 012°33'0 0.2
2017-Jun-27 06:30N 65°31' E 012°33'0 0.0
2017-Jun-27 05:57N 65°31' E 012°33'0 0.0
2017-Jun-27 05:30N 65°31' E 012°33'0 0.0
2017-Jun-27 05:00N 65°31' E 012°33'0 0.0
2017-Jun-27 04:28N 65°31' E 012°33'0 0.0
2017-Jun-27 04:00N 65°31' E 012°33'0 0.0
2017-Jun-27 03:30N 65°31' E 012°33'0 0.0
2017-Jun-27 02:59N 65°31' E 012°33'0 0.0
2017-Jun-27 02:30N 65°31' E 012°33'0 0.0
2017-Jun-27 02:00N 65°31' E 012°33'0 0.0
2017-Jun-27 01:30N 65°31' E 012°33'0 0.0
2017-Jun-27 01:00N 65°31' E 012°33'0 0.0
2017-Jun-27 00:29N 65°31' E 012°33'0 0.0
2017-Jun-27 00:00N 65°31' E 012°33'0 0.0
2017-Jun-26 23:30N 65°31' E 012°33'0 0.0
2017-Jun-26 22:59N 65°31' E 012°33'0 0.0
2017-Jun-26 22:30N 65°31' E 012°33'0 0.0
2017-Jun-26 21:55N 65°31' E 012°33'0 0.0
2017-Jun-26 21:30N 65°31' E 012°33'0 0.0
2017-Jun-26 20:59N 65°31' E 012°33'0 0.0
2017-Jun-26 20:30N 65°31' E 012°33'0 0.0
2017-Jun-26 20:00N 65°31' E 012°33'0 0.0
2017-Jun-26 19:29N 65°31' E 012°33'0 0.0
2017-Jun-26 18:56N 65°31' E 012°33'0 0.0
2017-Jun-26 18:27N 65°31' E 012°33'0 0.0
2017-Jun-26 18:00N 65°31' E 012°33'0 0.0
2017-Jun-26 17:30N 65°31' E 012°33'0 0.0
2017-Jun-26 16:59N 65°31' E 012°33'0 0.1
2017-Jun-26 16:30N 65°31' E 012°33'0 0.0
2017-Jun-26 16:00N 65°31' E 012°33'0 0.0
2017-Jun-26 15:29N 65°31' E 012°33'0 0.0
2017-Jun-26 15:01N 65°31' E 012°33'0 0.1
2017-Jun-26 13:59N 65°31' E 012°33'0 0.0
2017-Jun-26 13:30N 65°31' E 012°33'0 0.0
2017-Jun-26 13:00N 65°31' E 012°33'0 0.0
2017-Jun-26 12:30N 65°31' E 012°33'0 0.0
2017-Jun-26 08:24N 65°31' E 012°33'0 0.0
2017-Jun-26 07:59N 65°31' E 012°33'0 0.0
2017-Jun-26 07:29N 65°31' E 012°33'0 0.0
2017-Jun-26 07:00N 65°31' E 012°33'0 0.1
2017-Jun-26 06:30N 65°32' E 012°33'0 0.0
2017-Jun-26 06:00N 65°32' E 012°33'0 0.0
2017-Jun-26 05:30N 65°32' E 012°33'0 0.0
2017-Jun-26 04:59N 65°32' E 012°33'0 0.0
2017-Jun-26 04:24N 65°32' E 012°33'0 0.0
2017-Jun-26 04:00N 65°32' E 012°33'0 0.0
2017-Jun-26 03:28N 65°32' E 012°33'0 0.0
2017-Jun-26 03:00N 65°32' E 012°33'0 0.0
2017-Jun-26 02:28N 65°32' E 012°33'0 0.0
2017-Jun-26 02:00N 65°32' E 012°33'0 0.0
2017-Jun-26 01:30N 65°32' E 012°33'0 0.0
2017-Jun-26 00:59N 65°32' E 012°33'0 0.0
2017-Jun-26 00:29N 65°32' E 012°33'0 0.0
2017-Jun-26 00:00N 65°32' E 012°33'0 0.0
2017-Jun-25 23:30N 65°32' E 012°33'0 0.0
2017-Jun-25 23:00N 65°32' E 012°33'0 0.0
2017-Jun-25 22:30N 65°32' E 012°33'0 0.0
2017-Jun-25 22:00N 65°32' E 012°33'0 0.0
2017-Jun-25 21:30N 65°32' E 012°33'0 0.0
2017-Jun-25 21:00N 65°32' E 012°33'0 0.0
2017-Jun-25 20:30N 65°32' E 012°33'0 0.0
2017-Jun-25 20:00N 65°32' E 012°33'0 0.0
2017-Jun-25 19:30N 65°32' E 012°33'0 0.0
2017-Jun-25 19:00N 65°32' E 012°33'0 0.0
2017-Jun-25 18:30N 65°32' E 012°33'0 0.0
2017-Jun-25 17:59N 65°32' E 012°33'0 0.0
2017-Jun-25 17:30N 65°32' E 012°33'0 0.0
2017-Jun-25 16:59N 65°32' E 012°33'0 0.0
2017-Jun-25 16:30N 65°32' E 012°33'0 0.0
2017-Jun-25 16:00N 65°32' E 012°33'0 0.0
2017-Jun-25 15:30N 65°32' E 012°33'3 5.3
2017-Jun-25 15:00N 65°31' E 012°27'1010.0
2017-Jun-25 14:00N 65°40' E 012°16'510.3
2017-Jun-25 13:30N 65°45' E 012°15'5 9.8
2017-Jun-25 13:00N 65°50' E 012°17'1 2.8
2017-Jun-25 12:30N 65°51' E 012°17'0 0.0
2017-Jun-25 12:00N 65°51' E 012°17'0 0.0
2017-Jun-25 11:29N 65°51' E 012°17'0 0.0
2017-Jun-25 11:00N 65°51' E 012°17'0 0.0
2017-Jun-25 10:30N 65°51' E 012°17'0 0.0
2017-Jun-25 10:00N 65°51' E 012°17'0 0.1
2017-Jun-25 09:30N 65°51' E 012°17'0 0.0
2017-Jun-25 09:00N 65°51' E 012°17'0 0.0
2017-Jun-25 08:29N 65°51' E 012°17'0 0.0
2017-Jun-25 08:00N 65°51' E 012°17'0 0.0
2017-Jun-25 07:30N 65°51' E 012°17'0 0.1
2017-Jun-25 07:00N 65°51' E 012°17'0 0.0
2017-Jun-25 06:30N 65°51' E 012°17'0 0.0
2017-Jun-25 06:00N 65°51' E 012°17'0 0.0
2017-Jun-25 05:30N 65°51' E 012°17'0 0.0
2017-Jun-25 05:00N 65°51' E 012°17'0 0.0
2017-Jun-25 04:30N 65°51' E 012°17'0 0.0
2017-Jun-25 04:00N 65°51' E 012°17'0 0.0
2017-Jun-25 03:30N 65°51' E 012°17'0 0.0
2017-Jun-25 03:00N 65°51' E 012°17'0 0.0
2017-Jun-25 02:30N 65°51' E 012°17'0 0.0
2017-Jun-25 02:00N 65°51' E 012°17'0 0.0
2017-Jun-25 01:29N 65°51' E 012°17'0 0.0
2017-Jun-25 01:00N 65°51' E 012°17'0 0.0
2017-Jun-25 00:30N 65°51' E 012°17'0 0.0
2017-Jun-25 00:00N 65°51' E 012°17'0 0.0
2017-Jun-24 23:30N 65°51' E 012°17'0 0.0
2017-Jun-24 23:00N 65°51' E 012°17'0 0.0
2017-Jun-24 22:30N 65°51' E 012°17'0 0.0
2017-Jun-24 22:00N 65°51' E 012°17'0 0.0
2017-Jun-24 21:30N 65°51' E 012°17'0 0.0
2017-Jun-24 21:00N 65°51' E 012°17'0 0.0
2017-Jun-24 20:30N 65°51' E 012°17'0 0.0
2017-Jun-24 20:00N 65°51' E 012°17'0 0.0
2017-Jun-24 19:30N 65°51' E 012°17'0 0.0
2017-Jun-24 19:00N 65°51' E 012°17'0 0.0
2017-Jun-24 18:30N 65°51' E 012°17'0 0.0
2017-Jun-24 18:00N 65°51' E 012°17'0 0.0
2017-Jun-24 17:30N 65°51' E 012°17'0 0.0
2017-Jun-24 17:00N 65°51' E 012°17'0 0.0
2017-Jun-24 16:30N 65°51' E 012°17'0 0.0
2017-Jun-24 16:00N 65°51' E 012°17'0 0.0
2017-Jun-24 15:30N 65°51' E 012°17'0 0.0
2017-Jun-24 15:00N 65°51' E 012°17'0 0.1
2017-Jun-24 14:00N 65°51' E 012°17'0 0.0
2017-Jun-24 13:30N 65°51' E 012°17'0 0.0
2017-Jun-24 13:00N 65°51' E 012°17'0 0.0
2017-Jun-24 12:30N 65°51' E 012°17'0 0.0
2017-Jun-24 12:00N 65°51' E 012°17'0 0.1
2017-Jun-24 11:30N 65°51' E 012°17'0 0.0
2017-Jun-24 11:00N 65°51' E 012°17'0 0.0
2017-Jun-24 10:30N 65°51' E 012°17'0 0.0
2017-Jun-24 10:00N 65°51' E 012°17'0 0.0
2017-Jun-24 09:30N 65°51' E 012°17'0 0.1
2017-Jun-24 09:00N 65°51' E 012°17'0 0.0
2017-Jun-24 08:30N 65°51' E 012°17'0 0.0
2017-Jun-24 08:00N 65°51' E 012°17'0 0.0
2017-Jun-24 07:30N 65°51' E 012°17'0 0.0
2017-Jun-24 07:00N 65°51' E 012°17'0 0.0
2017-Jun-24 06:30N 65°51' E 012°17'5 9.2
2017-Jun-24 06:00N 65°55' E 012°23'5 9.2
2017-Jun-24 05:30N 65°60' E 012°24'1 2.1
2017-Jun-24 05:00N 66°01' E 012°23'0 0.0
2017-Jun-24 04:30N 66°01' E 012°23'0 0.0
2017-Jun-24 04:00N 66°01' E 012°23'0 0.0
2017-Jun-24 03:30N 66°01' E 012°23'0 0.0
2017-Jun-24 02:59N 66°01' E 012°23'0 0.0
2017-Jun-24 02:30N 66°01' E 012°23'0 0.0
2017-Jun-24 02:00N 66°01' E 012°23'0 0.0
2017-Jun-24 01:30N 66°01' E 012°23'0 0.0
2017-Jun-24 01:00N 66°01' E 012°23'0 0.0
2017-Jun-24 00:30N 66°01' E 012°23'0 0.0
2017-Jun-24 00:00N 66°01' E 012°23'0 0.0
2017-Jun-23 23:30N 66°01' E 012°23'0 0.0
2017-Jun-23 23:00N 66°01' E 012°23'0 0.0
2017-Jun-23 22:29N 66°01' E 012°23'0 0.0
2017-Jun-23 22:00N 66°01' E 012°23'0 0.0
2017-Jun-23 21:30N 66°01' E 012°23'0 0.0
2017-Jun-23 20:59N 66°01' E 012°23'0 0.0
2017-Jun-23 20:30N 66°01' E 012°23'0 0.0
2017-Jun-23 20:00N 66°01' E 012°23'0 0.0
2017-Jun-23 19:30N 66°01' E 012°23'0 0.0
2017-Jun-23 19:00N 66°01' E 012°23'0 0.0
2017-Jun-23 18:30N 66°01' E 012°23'0 0.0
2017-Jun-23 18:00N 66°01' E 012°23'0 0.0
2017-Jun-23 17:30N 66°01' E 012°23'0 0.0
2017-Jun-23 17:00N 66°01' E 012°23'0 0.0
2017-Jun-23 16:30N 66°01' E 012°23'0 0.0
2017-Jun-23 16:00N 66°01' E 012°23'0 0.0
2017-Jun-23 15:30N 66°01' E 012°23'0 0.0
2017-Jun-23 15:00N 66°01' E 012°23'0 0.0
2017-Jun-23 14:30N 66°01' E 012°23'0 0.0
2017-Jun-23 13:30N 66°01' E 012°23'0 0.0
2017-Jun-23 13:00N 66°01' E 012°23'0 0.0
2017-Jun-23 12:30N 66°01' E 012°23'0 0.0
2017-Jun-23 12:00N 66°01' E 012°23'0 0.0
2017-Jun-23 11:30N 66°01' E 012°23'0 0.0
2017-Jun-23 11:00N 66°01' E 012°23'1 1.8
2017-Jun-23 10:30N 65°60' E 012°23'4 8.8
2017-Jun-23 10:00N 65°56' E 012°17'2 4.7
2017-Jun-23 09:30N 65°55' E 012°13'0 0.0
2017-Jun-23 09:00N 65°55' E 012°13'0 0.0
2017-Jun-23 08:30N 65°55' E 012°13'0 0.0
2017-Jun-23 08:00N 65°55' E 012°13'0 0.0
2017-Jun-23 07:30N 65°55' E 012°13'0 0.0
2017-Jun-23 07:00N 65°55' E 012°13'0 0.1
2017-Jun-23 06:30N 65°54' E 012°13'0 0.0
2017-Jun-23 05:59N 65°54' E 012°13'0 0.0
2017-Jun-23 05:30N 65°54' E 012°13'0 0.0
2017-Jun-23 05:00N 65°54' E 012°13'0 0.0
2017-Jun-23 04:30N 65°54' E 012°13'0 0.0
2017-Jun-23 04:00N 65°54' E 012°13'0 0.0
2017-Jun-23 03:30N 65°54' E 012°13'0 0.0
2017-Jun-23 03:00N 65°54' E 012°13'0 0.0
2017-Jun-23 02:30N 65°54' E 012°13'0 0.0
2017-Jun-23 02:00N 65°54' E 012°13'0 0.0
2017-Jun-23 01:30N 65°54' E 012°13'0 0.0
2017-Jun-23 01:00N 65°54' E 012°13'0 0.0
2017-Jun-23 00:30N 65°54' E 012°13'0 0.0
2017-Jun-23 00:00N 65°54' E 012°13'0 0.0
2017-Jun-22 23:29N 65°54' E 012°13'0 0.0
2017-Jun-22 23:00N 65°54' E 012°13'0 0.0
2017-Jun-22 22:30N 65°54' E 012°13'0 0.0
2017-Jun-22 22:00N 65°54' E 012°13'0 0.0
2017-Jun-22 21:30N 65°54' E 012°13'0 0.0
2017-Jun-22 21:00N 65°54' E 012°13'0 0.0
2017-Jun-22 20:30N 65°54' E 012°13'0 0.0
2017-Jun-22 20:00N 65°54' E 012°13'0 0.0
2017-Jun-22 19:30N 65°54' E 012°13'0 0.0
2017-Jun-22 19:00N 65°54' E 012°13'0 0.0
2017-Jun-22 18:30N 65°54' E 012°13'0 0.0
2017-Jun-22 18:00N 65°54' E 012°13'0 0.0
2017-Jun-22 17:30N 65°54' E 012°13'0 0.0
2017-Jun-22 17:00N 65°54' E 012°13'0 0.0
2017-Jun-22 16:30N 65°54' E 012°13'0 0.1
2017-Jun-22 16:00N 65°54' E 012°13'0 0.0
2017-Jun-22 15:30N 65°54' E 012°13'0 0.0
2017-Jun-22 15:00N 65°54' E 012°13'0 0.0
2017-Jun-22 14:30N 65°54' E 012°13'0 0.0
2017-Jun-22 13:30N 65°54' E 012°13'0 0.0
2017-Jun-22 13:00N 65°54' E 012°13'0 0.0
2017-Jun-22 12:30N 65°54' E 012°13'0 0.0
2017-Jun-22 11:59N 65°54' E 012°13'0 0.0
2017-Jun-22 11:30N 65°54' E 012°13'0 0.1
2017-Jun-22 11:00N 65°54' E 012°13'0 0.0
2017-Jun-22 10:30N 65°54' E 012°13'0 0.0
2017-Jun-22 10:00N 65°54' E 012°13'0 0.0
2017-Jun-22 09:30N 65°54' E 012°13'0 0.0
2017-Jun-22 09:00N 65°54' E 012°13'0 0.1
2017-Jun-22 08:30N 65°54' E 012°13'0 0.0
2017-Jun-22 08:00N 65°54' E 012°13'0 0.0
2017-Jun-22 07:29N 65°54' E 012°13'0 0.0
2017-Jun-22 07:00N 65°54' E 012°13'0 0.1
2017-Jun-22 06:30N 65°54' E 012°13'0 0.0
2017-Jun-22 06:00N 65°54' E 012°13'0 0.0
2017-Jun-22 05:30N 65°54' E 012°13'0 0.0
2017-Jun-22 05:00N 65°54' E 012°13'0 0.0
2017-Jun-22 04:30N 65°54' E 012°13'0 0.0
2017-Jun-22 04:00N 65°54' E 012°13'0 0.0
2017-Jun-22 03:30N 65°54' E 012°13'0 0.0
2017-Jun-22 03:00N 65°54' E 012°13'0 0.0
2017-Jun-22 02:30N 65°54' E 012°13'0 0.0
2017-Jun-22 02:00N 65°54' E 012°13'0 0.0
2017-Jun-22 01:30N 65°54' E 012°13'0 0.0
2017-Jun-22 01:00N 65°54' E 012°13'0 0.0
2017-Jun-22 00:30N 65°54' E 012°13'0 0.0
2017-Jun-22 00:00N 65°54' E 012°13'0 0.0
2017-Jun-21 23:30N 65°54' E 012°13'0 0.0
2017-Jun-21 23:00N 65°54' E 012°13'0 0.0
2017-Jun-21 22:30N 65°54' E 012°13'0 0.0
2017-Jun-21 22:00N 65°54' E 012°13'0 0.0
2017-Jun-21 21:30N 65°54' E 012°13'0 0.0
2017-Jun-21 21:00N 65°54' E 012°13'0 0.0
2017-Jun-21 20:30N 65°54' E 012°13'0 0.0
2017-Jun-21 20:00N 65°54' E 012°13'0 0.0
2017-Jun-21 19:30N 65°54' E 012°13'0 0.0
2017-Jun-21 19:00N 65°54' E 012°13'0 0.0
2017-Jun-21 18:30N 65°54' E 012°13'0 0.0
2017-Jun-21 18:00N 65°54' E 012°13'0 0.0
2017-Jun-21 17:30N 65°54' E 012°13'0 0.0
2017-Jun-21 17:00N 65°54' E 012°13'0 0.0
2017-Jun-21 16:30N 65°54' E 012°13'0 0.0
2017-Jun-21 16:00N 65°54' E 012°13'0 0.1
2017-Jun-21 15:30N 65°54' E 012°13'0 0.0
2017-Jun-21 15:00N 65°54' E 012°13'0 0.0
2017-Jun-21 14:30N 65°54' E 012°13'0 0.0
2017-Jun-21 13:30N 65°54' E 012°13'0 0.0
2017-Jun-21 12:59N 65°54' E 012°13'0 0.0
2017-Jun-21 12:29N 65°54' E 012°13'0 0.0
2017-Jun-21 11:59N 65°54' E 012°13'0 0.0
2017-Jun-21 11:29N 65°54' E 012°13'0 0.1
2017-Jun-21 11:00N 65°54' E 012°13'0 0.0
2017-Jun-21 10:29N 65°54' E 012°13'0 0.0
2017-Jun-21 10:00N 65°54' E 012°13'0 0.0
2017-Jun-21 09:30N 65°54' E 012°13'0 0.2
2017-Jun-21 09:00N 65°55' E 012°13'0 0.0
2017-Jun-21 08:30N 65°54' E 012°13'0 0.0
2017-Jun-21 08:00N 65°54' E 012°13'0 0.0
2017-Jun-21 07:30N 65°54' E 012°13'0 0.1
2017-Jun-21 06:57N 65°54' E 012°13'0 0.0
2017-Jun-21 06:30N 65°54' E 012°13'0 0.0
2017-Jun-21 05:59N 65°54' E 012°13'0 0.0
2017-Jun-21 05:30N 65°54' E 012°13'0 0.0
2017-Jun-21 05:00N 65°54' E 012°13'0 0.0
2017-Jun-21 04:30N 65°54' E 012°13'0 0.0
2017-Jun-21 04:00N 65°54' E 012°13'0 0.0
2017-Jun-21 03:30N 65°54' E 012°13'0 0.0
2017-Jun-21 03:00N 65°54' E 012°13'0 0.0
2017-Jun-21 02:30N 65°54' E 012°13'0 0.0
2017-Jun-21 02:00N 65°54' E 012°13'0 0.0
2017-Jun-21 01:29N 65°54' E 012°13'0 0.0
2017-Jun-21 01:00N 65°54' E 012°13'0 0.0
2017-Jun-21 00:30N 65°54' E 012°13'0 0.0
2017-Jun-21 00:00N 65°54' E 012°13'0 0.0
2017-Jun-20 23:31N 65°54' E 012°13'0 0.0
2017-Jun-20 23:00N 65°54' E 012°13'0 0.0
2017-Jun-20 22:30N 65°54' E 012°13'0 0.0
2017-Jun-20 22:00N 65°54' E 012°13'0 0.0
2017-Jun-20 21:30N 65°54' E 012°13'0 0.0
2017-Jun-20 20:59N 65°54' E 012°13'0 0.0
2017-Jun-20 20:30N 65°54' E 012°13'0 0.0
2017-Jun-20 20:00N 65°54' E 012°13'0 0.0
2017-Jun-20 19:29N 65°54' E 012°13'0 0.0
2017-Jun-20 18:59N 65°54' E 012°13'0 0.0
2017-Jun-20 18:30N 65°54' E 012°13'4 7.1
2017-Jun-20 18:00N 65°57' E 012°20'5 9.9
2017-Jun-20 17:30N 66°00' E 012°29'5 9.5
2017-Jun-20 17:00N 66°04' E 012°37'5 9.2
2017-Jun-20 16:29N 66°08' E 012°40'2 3.3
2017-Jun-20 16:00N 66°10' E 012°41'0 0.0
2017-Jun-20 15:30N 66°10' E 012°41'0 0.0
2017-Jun-20 15:00N 66°10' E 012°41'0 0.0
2017-Jun-20 14:00N 66°10' E 012°41'0 0.1
2017-Jun-20 13:30N 66°10' E 012°41'0 0.0
2017-Jun-20 13:00N 66°10' E 012°41'0 0.0
2017-Jun-20 12:31N 66°10' E 012°41'0 0.0
2017-Jun-20 12:00N 66°10' E 012°41'0 0.0
2017-Jun-20 11:30N 66°10' E 012°41'0 0.0
2017-Jun-20 11:00N 66°10' E 012°41'0 0.4
2017-Jun-20 10:30N 66°09' E 012°41'0 0.1
2017-Jun-20 10:00N 66°09' E 012°41'0 0.0
2017-Jun-20 09:30N 66°09' E 012°41'0 0.0
2017-Jun-20 09:00N 66°09' E 012°41'0 0.0
2017-Jun-20 08:31N 66°09' E 012°41'0 0.0
2017-Jun-20 08:01N 66°09' E 012°41'0 0.1
2017-Jun-20 07:30N 66°09' E 012°41'0 0.0
2017-Jun-20 07:00N 66°09' E 012°41'0 0.0
2017-Jun-20 06:30N 66°09' E 012°41'0 0.0
2017-Jun-20 06:00N 66°09' E 012°41'0 0.0
2017-Jun-20 05:31N 66°09' E 012°41'0 0.3
2017-Jun-20 05:00N 66°10' E 012°41'0 0.0
2017-Jun-20 04:30N 66°10' E 012°41'0 0.0
2017-Jun-20 04:00N 66°10' E 012°41'0 0.0
2017-Jun-20 03:30N 66°10' E 012°41'0 0.0
2017-Jun-20 03:00N 66°10' E 012°41'0 0.0
2017-Jun-20 02:31N 66°10' E 012°41'0 0.0
2017-Jun-20 02:00N 66°10' E 012°41'0 0.0
2017-Jun-20 01:31N 66°10' E 012°41'0 0.0
2017-Jun-20 01:00N 66°10' E 012°41'0 0.0
2017-Jun-20 00:30N 66°10' E 012°41'0 0.0
2017-Jun-20 00:00N 66°10' E 012°41'0 0.0
2017-Jun-19 23:31N 66°10' E 012°41'0 0.0
2017-Jun-19 23:00N 66°10' E 012°41'0 0.0
2017-Jun-19 22:30N 66°10' E 012°41'0 0.0
2017-Jun-19 22:00N 66°10' E 012°41'0 0.0
2017-Jun-19 21:30N 66°10' E 012°41'0 0.0
2017-Jun-19 21:01N 66°10' E 012°41'0 0.0
2017-Jun-19 20:30N 66°10' E 012°41'0 0.0
2017-Jun-19 20:00N 66°10' E 012°41'0 0.0
2017-Jun-19 19:30N 66°10' E 012°41'0 0.0
2017-Jun-19 19:00N 66°10' E 012°41'0 0.0
2017-Jun-19 18:31N 66°10' E 012°41'0 0.0
2017-Jun-19 18:00N 66°10' E 012°41'0 0.0
2017-Jun-19 17:30N 66°10' E 012°41'0 0.0
2017-Jun-19 17:00N 66°10' E 012°41'0 0.0
2017-Jun-19 16:30N 66°10' E 012°41'0 0.0
2017-Jun-19 16:01N 66°10' E 012°41'0 0.0
2017-Jun-19 15:30N 66°10' E 012°41'0 0.4
2017-Jun-19 15:00N 66°10' E 012°41'0 0.0
2017-Jun-19 14:00N 66°10' E 012°41'0 0.0
2017-Jun-19 13:30N 66°10' E 012°41'0 0.0
2017-Jun-19 13:00N 66°10' E 012°41'0 0.0
2017-Jun-19 12:30N 66°10' E 012°41'0 0.3
2017-Jun-19 12:00N 66°10' E 012°41'0 0.4
2017-Jun-19 11:30N 66°09' E 012°41'0 0.0
2017-Jun-19 11:00N 66°09' E 012°41'0 0.0
2017-Jun-19 10:30N 66°09' E 012°41'0 0.0
2017-Jun-19 10:00N 66°09' E 012°41'0 0.0
2017-Jun-19 09:30N 66°09' E 012°41'0 0.2
2017-Jun-19 09:00N 66°10' E 012°41'0 0.0
2017-Jun-19 08:30N 66°10' E 012°41'0 0.0
2017-Jun-19 08:00N 66°10' E 012°41'0 0.0
2017-Jun-19 07:29N 66°10' E 012°41'0 0.0
2017-Jun-19 07:00N 66°10' E 012°41'0 0.0
2017-Jun-19 06:30N 66°10' E 012°41'0 0.0
2017-Jun-19 06:00N 66°10' E 012°41'2 4.7
2017-Jun-19 05:30N 66°07' E 012°41'510.5
2017-Jun-19 05:00N 66°03' E 012°33'5 9.7
2017-Jun-19 04:30N 66°01' E 012°23'0 0.0
2017-Jun-19 04:00N 66°01' E 012°23'0 0.0
2017-Jun-19 03:30N 66°01' E 012°23'0 0.0
2017-Jun-19 03:00N 66°01' E 012°23'0 0.0
2017-Jun-19 02:30N 66°01' E 012°23'0 0.0
2017-Jun-19 02:00N 66°01' E 012°23'0 0.0
2017-Jun-19 01:30N 66°01' E 012°23'0 0.0
2017-Jun-19 01:00N 66°01' E 012°23'0 0.0
2017-Jun-19 00:30N 66°01' E 012°23'0 0.0
2017-Jun-19 00:00N 66°01' E 012°23'0 0.0
2017-Jun-18 23:30N 66°01' E 012°23'0 0.0
2017-Jun-18 23:00N 66°01' E 012°23'0 0.0
2017-Jun-18 22:30N 66°01' E 012°23'0 0.0
2017-Jun-18 22:00N 66°01' E 012°23'0 0.0
2017-Jun-18 21:30N 66°01' E 012°23'0 0.0
2017-Jun-18 21:00N 66°01' E 012°23'  
Track history (hours):
 
Tides and Currents Weather Stations Pressure Air Temp Water Temp Dewpoint Dewpoint Depression Visibility Wind Speed Wind Dir Waves Ship Positions

Fonvind

Last reported at 2017-Jun-28 21:00 UTC. Time now 2017-Jun-28 21:00 UTC.
Position N 65°27' E 012°34'.

Length 34 m; draft 3.5 m.

Type: Cargo ship. MMSI: 257322400.

Date/timePositionNaut miles runAvg speedWind from/ knotsBaromVisibWave heightAir tempDewpointWater temp
2017-Jun-28 21:00N 65°27' E 012°34'0 0.0
2017-Jun-28 20:30N 65°27' E 012°34'0 0.0
2017-Jun-28 20:00N 65°27' E 012°34'0 0.0
2017-Jun-28 19:30N 65°27' E 012°34'0 0.0
2017-Jun-28 19:00N 65°27' E 012°34'0 0.0
2017-Jun-28 18:30N 65°27' E 012°34'0 0.1
2017-Jun-28 17:59N 65°27' E 012°34'0 0.0
2017-Jun-28 17:30N 65°27' E 012°34'0 0.0
2017-Jun-28 17:00N 65°27' E 012°34'0 0.0
2017-Jun-28 16:30N 65°27' E 012°34'0 0.1
2017-Jun-28 16:00N 65°27' E 012°34'0 0.0
2017-Jun-28 15:30N 65°27' E 012°34'0 0.0
2017-Jun-28 15:00N 65°27' E 012°34'0 0.0
2017-Jun-28 14:29N 65°27' E 012°34'0 0.0
2017-Jun-28 13:30N 65°27' E 012°34'0 0.0
2017-Jun-28 13:00N 65°27' E 012°34'0 0.0
2017-Jun-28 12:30N 65°27' E 012°34'0 0.0
2017-Jun-28 12:00N 65°27' E 012°34'0 0.1
2017-Jun-28 11:30N 65°27' E 012°34'0 0.0
2017-Jun-28 11:00N 65°27' E 012°34'0 0.0
2017-Jun-28 10:30N 65°27' E 012°34'0 0.0
2017-Jun-28 10:00N 65°27' E 012°34'0 0.0
2017-Jun-28 09:30N 65°27' E 012°34'5 9.0
2017-Jun-28 09:00N 65°30' E 012°27'5 9.2
2017-Jun-28 08:30N 65°35' E 012°22'5 9.5
2017-Jun-28 08:00N 65°39' E 012°17'5 9.9
2017-Jun-28 07:30N 65°44' E 012°17'510.5
2017-Jun-28 07:00N 65°49' E 012°21'510.5
2017-Jun-28 06:30N 65°54' E 012°22'510.4
2017-Jun-28 05:59N 65°59' E 012°24'1 2.9
2017-Jun-28 05:30N 66°01' E 012°23'0 0.0
2017-Jun-28 05:00N 66°01' E 012°23'0 0.0
2017-Jun-28 04:30N 66°01' E 012°23'0 0.0
2017-Jun-28 04:00N 66°01' E 012°23'0 0.0
2017-Jun-28 03:30N 66°01' E 012°23'0 0.0
2017-Jun-28 03:00N 66°01' E 012°23'0 0.0
2017-Jun-28 02:30N 66°01' E 012°23'0 0.0
2017-Jun-28 02:00N 66°01' E 012°23'0 0.0
2017-Jun-28 01:30N 66°01' E 012°23'0 0.0
2017-Jun-28 01:00N 66°01' E 012°23'0 0.0
2017-Jun-28 00:30N 66°01' E 012°23'0 0.0
2017-Jun-28 00:00N 66°01' E 012°23'0 0.0
2017-Jun-27 23:30N 66°01' E 012°23'0 0.0
2017-Jun-27 23:00N 66°01' E 012°23'0 0.0
2017-Jun-27 22:30N 66°01' E 012°23'0 0.0
2017-Jun-27 22:00N 66°01' E 012°23'0 0.0
2017-Jun-27 21:30N 66°01' E 012°23'0 0.0
2017-Jun-27 21:00N 66°01' E 012°23'0 0.0
2017-Jun-27 20:30N 66°01' E 012°23'0 0.0
2017-Jun-27 20:00N 66°01' E 012°23'0 0.0
2017-Jun-27 19:30N 66°01' E 012°23'0 0.0
2017-Jun-27 18:59N 66°01' E 012°23'2 3.2
2017-Jun-27 18:30N 65°59' E 012°24'5 9.4
2017-Jun-27 18:00N 65°54' E 012°22'4 8.9
2017-Jun-27 17:30N 65°50' E 012°22'5 9.4
2017-Jun-27 17:00N 65°45' E 012°19'5 9.4
2017-Jun-27 16:30N 65°41' E 012°17'4 8.9
2017-Jun-27 16:00N 65°37' E 012°20'4 8.9
2017-Jun-27 15:30N 65°32' E 012°23'4 7.6
2017-Jun-27 15:00N 65°31' E 012°32'0 0.4
2017-Jun-27 14:00N 65°31' E 012°33'0 0.0
2017-Jun-27 13:30N 65°31' E 012°33'0 0.2
2017-Jun-27 13:00N 65°32' E 012°33'0 0.0
2017-Jun-27 12:29N 65°32' E 012°33'0 0.0
2017-Jun-27 12:00N 65°32' E 012°33'0 0.0
2017-Jun-27 11:30N 65°32' E 012°33'0 0.0
2017-Jun-27 11:00N 65°32' E 012°33'0 0.1
2017-Jun-27 10:29N 65°32' E 012°33'0 0.0
2017-Jun-27 10:00N 65°32' E 012°33'0 0.0
2017-Jun-27 09:30N 65°32' E 012°33'0 0.0
2017-Jun-27 09:00N 65°32' E 012°33'0 0.1
2017-Jun-27 08:30N 65°31' E 012°33'0 0.0
2017-Jun-27 08:00N 65°31' E 012°33'0 0.0
2017-Jun-27 07:30N 65°31' E 012°33'0 0.0
2017-Jun-27 06:59N 65°31' E 012°33'0 0.2
2017-Jun-27 06:30N 65°31' E 012°33'0 0.0
2017-Jun-27 05:57N 65°31' E 012°33'0 0.0
2017-Jun-27 05:30N 65°31' E 012°33'0 0.0
2017-Jun-27 05:00N 65°31' E 012°33'0 0.0
2017-Jun-27 04:28N 65°31' E 012°33'0 0.0
2017-Jun-27 04:00N 65°31' E 012°33'0 0.0
2017-Jun-27 03:30N 65°31' E 012°33'0 0.0
2017-Jun-27 02:59N 65°31' E 012°33'0 0.0
2017-Jun-27 02:30N 65°31' E 012°33'0 0.0
2017-Jun-27 02:00N 65°31' E 012°33'0 0.0
2017-Jun-27 01:30N 65°31' E 012°33'0 0.0
2017-Jun-27 01:00N 65°31' E 012°33'0 0.0
2017-Jun-27 00:29N 65°31' E 012°33'0 0.0
2017-Jun-27 00:00N 65°31' E 012°33'0 0.0
2017-Jun-26 23:30N 65°31' E 012°33'0 0.0
2017-Jun-26 22:59N 65°31' E 012°33'0 0.0
2017-Jun-26 22:30N 65°31' E 012°33'0 0.0
2017-Jun-26 21:55N 65°31' E 012°33'0 0.0
2017-Jun-26 21:30N 65°31' E 012°33'0 0.0
2017-Jun-26 20:59N 65°31' E 012°33'0 0.0
2017-Jun-26 20:30N 65°31' E 012°33'0 0.0
2017-Jun-26 20:00N 65°31' E 012°33'0 0.0
2017-Jun-26 19:29N 65°31' E 012°33'0 0.0
2017-Jun-26 18:56N 65°31' E 012°33'0 0.0
2017-Jun-26 18:27N 65°31' E 012°33'0 0.0
2017-Jun-26 18:00N 65°31' E 012°33'0 0.0
2017-Jun-26 17:30N 65°31' E 012°33'0 0.0
2017-Jun-26 16:59N 65°31' E 012°33'0 0.1
2017-Jun-26 16:30N 65°31' E 012°33'0 0.0
2017-Jun-26 16:00N 65°31' E 012°33'0 0.0
2017-Jun-26 15:29N 65°31' E 012°33'0 0.0
2017-Jun-26 15:01N 65°31' E 012°33'0 0.1
2017-Jun-26 13:59N 65°31' E 012°33'0 0.0
2017-Jun-26 13:30N 65°31' E 012°33'0 0.0
2017-Jun-26 13:00N 65°31' E 012°33'0 0.0
2017-Jun-26 12:30N 65°31' E 012°33'0 0.0
2017-Jun-26 08:24N 65°31' E 012°33'0 0.0
2017-Jun-26 07:59N 65°31' E 012°33'0 0.0
2017-Jun-26 07:29N 65°31' E 012°33'0 0.0
2017-Jun-26 07:00N 65°31' E 012°33'0 0.1
2017-Jun-26 06:30N 65°32' E 012°33'0 0.0
2017-Jun-26 06:00N 65°32' E 012°33'0 0.0
2017-Jun-26 05:30N 65°32' E 012°33'0 0.0
2017-Jun-26 04:59N 65°32' E 012°33'0 0.0
2017-Jun-26 04:24N 65°32' E 012°33'0 0.0
2017-Jun-26 04:00N 65°32' E 012°33'0 0.0
2017-Jun-26 03:28N 65°32' E 012°33'0 0.0
2017-Jun-26 03:00N 65°32' E 012°33'0 0.0
2017-Jun-26 02:28N 65°32' E 012°33'0 0.0
2017-Jun-26 02:00N 65°32' E 012°33'0 0.0
2017-Jun-26 01:30N 65°32' E 012°33'0 0.0
2017-Jun-26 00:59N 65°32' E 012°33'0 0.0
2017-Jun-26 00:29N 65°32' E 012°33'0 0.0
2017-Jun-26 00:00N 65°32' E 012°33'0 0.0
2017-Jun-25 23:30N 65°32' E 012°33'0 0.0
2017-Jun-25 23:00N 65°32' E 012°33'0 0.0
2017-Jun-25 22:30N 65°32' E 012°33'0 0.0
2017-Jun-25 22:00N 65°32' E 012°33'0 0.0
2017-Jun-25 21:30N 65°32' E 012°33'0 0.0
2017-Jun-25 21:00N 65°32' E 012°33'0 0.0
2017-Jun-25 20:30N 65°32' E 012°33'0 0.0
2017-Jun-25 20:00N 65°32' E 012°33'0 0.0
2017-Jun-25 19:30N 65°32' E 012°33'0 0.0
2017-Jun-25 19:00N 65°32' E 012°33'0 0.0
2017-Jun-25 18:30N 65°32' E 012°33'0 0.0
2017-Jun-25 17:59N 65°32' E 012°33'0 0.0
2017-Jun-25 17:30N 65°32' E 012°33'0 0.0
2017-Jun-25 16:59N 65°32' E 012°33'0 0.0
2017-Jun-25 16:30N 65°32' E 012°33'0 0.0
2017-Jun-25 16:00N 65°32' E 012°33'0 0.0
2017-Jun-25 15:30N 65°32' E 012°33'3 5.3
2017-Jun-25 15:00N 65°31' E 012°27'1010.0
2017-Jun-25 14:00N 65°40' E 012°16'510.3
2017-Jun-25 13:30N 65°45' E 012°15'5 9.8
2017-Jun-25 13:00N 65°50' E 012°17'1 2.8
2017-Jun-25 12:30N 65°51' E 012°17'0 0.0
2017-Jun-25 12:00N 65°51' E 012°17'0 0.0
2017-Jun-25 11:29N 65°51' E 012°17'0 0.0
2017-Jun-25 11:00N 65°51' E 012°17'0 0.0
2017-Jun-25 10:30N 65°51' E 012°17'0 0.0
2017-Jun-25 10:00N 65°51' E 012°17'0 0.1
2017-Jun-25 09:30N 65°51' E 012°17'0 0.0
2017-Jun-25 09:00N 65°51' E 012°17'0 0.0
2017-Jun-25 08:29N 65°51' E 012°17'0 0.0
2017-Jun-25 08:00N 65°51' E 012°17'0 0.0
2017-Jun-25 07:30N 65°51' E 012°17'0 0.1
2017-Jun-25 07:00N 65°51' E 012°17'0 0.0
2017-Jun-25 06:30N 65°51' E 012°17'0 0.0
2017-Jun-25 06:00N 65°51' E 012°17'0 0.0
2017-Jun-25 05:30N 65°51' E 012°17'0 0.0
2017-Jun-25 05:00N 65°51' E 012°17'0 0.0
2017-Jun-25 04:30N 65°51' E 012°17'0 0.0
2017-Jun-25 04:00N 65°51' E 012°17'0 0.0
2017-Jun-25 03:30N 65°51' E 012°17'0 0.0
2017-Jun-25 03:00N 65°51' E 012°17'0 0.0
2017-Jun-25 02:30N 65°51' E 012°17'0 0.0
2017-Jun-25 02:00N 65°51' E 012°17'0 0.0
2017-Jun-25 01:29N 65°51' E 012°17'0 0.0
2017-Jun-25 01:00N 65°51' E 012°17'0 0.0
2017-Jun-25 00:30N 65°51' E 012°17'0 0.0
2017-Jun-25 00:00N 65°51' E 012°17'0 0.0
2017-Jun-24 23:30N 65°51' E 012°17'0 0.0
2017-Jun-24 23:00N 65°51' E 012°17'0 0.0
2017-Jun-24 22:30N 65°51' E 012°17'0 0.0
2017-Jun-24 22:00N 65°51' E 012°17'0 0.0
2017-Jun-24 21:30N 65°51' E 012°17'0 0.0
2017-Jun-24 21:00N 65°51' E 012°17'0 0.0
2017-Jun-24 20:30N 65°51' E 012°17'0 0.0
2017-Jun-24 20:00N 65°51' E 012°17'0 0.0
2017-Jun-24 19:30N 65°51' E 012°17'0 0.0
2017-Jun-24 19:00N 65°51' E 012°17'0 0.0
2017-Jun-24 18:30N 65°51' E 012°17'0 0.0
2017-Jun-24 18:00N 65°51' E 012°17'0 0.0
2017-Jun-24 17:30N 65°51' E 012°17'0 0.0
2017-Jun-24 17:00N 65°51' E 012°17'0 0.0
2017-Jun-24 16:30N 65°51' E 012°17'0 0.0
2017-Jun-24 16:00N 65°51' E 012°17'0 0.0
2017-Jun-24 15:30N 65°51' E 012°17'0 0.0
2017-Jun-24 15:00N 65°51' E 012°17'0 0.1
2017-Jun-24 14:00N 65°51' E 012°17'0 0.0
2017-Jun-24 13:30N 65°51' E 012°17'0 0.0
2017-Jun-24 13:00N 65°51' E 012°17'0 0.0
2017-Jun-24 12:30N 65°51' E 012°17'0 0.0
2017-Jun-24 12:00N 65°51' E 012°17'0 0.1
2017-Jun-24 11:30N 65°51' E 012°17'0 0.0
2017-Jun-24 11:00N 65°51' E 012°17'0 0.0
2017-Jun-24 10:30N 65°51' E 012°17'0 0.0
2017-Jun-24 10:00N 65°51' E 012°17'0 0.0
2017-Jun-24 09:30N 65°51' E 012°17'0 0.1
2017-Jun-24 09:00N 65°51' E 012°17'0 0.0
2017-Jun-24 08:30N 65°51' E 012°17'0 0.0
2017-Jun-24 08:00N 65°51' E 012°17'0 0.0
2017-Jun-24 07:30N 65°51' E 012°17'0 0.0
2017-Jun-24 07:00N 65°51' E 012°17'0 0.0
2017-Jun-24 06:30N 65°51' E 012°17'5 9.2
2017-Jun-24 06:00N 65°55' E 012°23'5 9.2
2017-Jun-24 05:30N 65°60' E 012°24'1 2.1
2017-Jun-24 05:00N 66°01' E 012°23'0 0.0
2017-Jun-24 04:30N 66°01' E 012°23'0 0.0
2017-Jun-24 04:00N 66°01' E 012°23'0 0.0
2017-Jun-24 03:30N 66°01' E 012°23'0 0.0
2017-Jun-24 02:59N 66°01' E 012°23'0 0.0
2017-Jun-24 02:30N 66°01' E 012°23'0 0.0
2017-Jun-24 02:00N 66°01' E 012°23'0 0.0
2017-Jun-24 01:30N 66°01' E 012°23'0 0.0
2017-Jun-24 01:00N 66°01' E 012°23'0 0.0
2017-Jun-24 00:30N 66°01' E 012°23'0 0.0
2017-Jun-24 00:00N 66°01' E 012°23'0 0.0
2017-Jun-23 23:30N 66°01' E 012°23'0 0.0
2017-Jun-23 23:00N 66°01' E 012°23'0 0.0
2017-Jun-23 22:29N 66°01' E 012°23'0 0.0
2017-Jun-23 22:00N 66°01' E 012°23'0 0.0
2017-Jun-23 21:30N 66°01' E 012°23'0 0.0
2017-Jun-23 20:59N 66°01' E 012°23'0 0.0
2017-Jun-23 20:30N 66°01' E 012°23'0 0.0
2017-Jun-23 20:00N 66°01' E 012°23'0 0.0
2017-Jun-23 19:30N 66°01' E 012°23'0 0.0
2017-Jun-23 19:00N 66°01' E 012°23'0 0.0
2017-Jun-23 18:30N 66°01' E 012°23'0 0.0
2017-Jun-23 18:00N 66°01' E 012°23'0 0.0
2017-Jun-23 17:30N 66°01' E 012°23'0 0.0
2017-Jun-23 17:00N 66°01' E 012°23'0 0.0
2017-Jun-23 16:30N 66°01' E 012°23'0 0.0
2017-Jun-23 16:00N 66°01' E 012°23'0 0.0
2017-Jun-23 15:30N 66°01' E 012°23'0 0.0
2017-Jun-23 15:00N 66°01' E 012°23'0 0.0
2017-Jun-23 14:30N 66°01' E 012°23'0 0.0
2017-Jun-23 13:30N 66°01' E 012°23'0 0.0
2017-Jun-23 13:00N 66°01' E 012°23'0 0.0
2017-Jun-23 12:30N 66°01' E 012°23'0 0.0
2017-Jun-23 12:00N 66°01' E 012°23'0 0.0
2017-Jun-23 11:30N 66°01' E 012°23'0 0.0
2017-Jun-23 11:00N 66°01' E 012°23'1 1.8
2017-Jun-23 10:30N 65°60' E 012°23'4 8.8
2017-Jun-23 10:00N 65°56' E 012°17'2 4.7
2017-Jun-23 09:30N 65°55' E 012°13'0 0.0
2017-Jun-23 09:00N 65°55' E 012°13'0 0.0
2017-Jun-23 08:30N 65°55' E 012°13'0 0.0
2017-Jun-23 08:00N 65°55' E 012°13'0 0.0
2017-Jun-23 07:30N 65°55' E 012°13'0 0.0
2017-Jun-23 07:00N 65°55' E 012°13'0 0.1
2017-Jun-23 06:30N 65°54' E 012°13'0 0.0
2017-Jun-23 05:59N 65°54' E 012°13'0 0.0
2017-Jun-23 05:30N 65°54' E 012°13'0 0.0
2017-Jun-23 05:00N 65°54' E 012°13'0 0.0
2017-Jun-23 04:30N 65°54' E 012°13'0 0.0
2017-Jun-23 04:00N 65°54' E 012°13'0 0.0
2017-Jun-23 03:30N 65°54' E 012°13'0 0.0
2017-Jun-23 03:00N 65°54' E 012°13'0 0.0
2017-Jun-23 02:30N 65°54' E 012°13'0 0.0
2017-Jun-23 02:00N 65°54' E 012°13'0 0.0
2017-Jun-23 01:30N 65°54' E 012°13'0 0.0
2017-Jun-23 01:00N 65°54' E 012°13'0 0.0
2017-Jun-23 00:30N 65°54' E 012°13'0 0.0
2017-Jun-23 00:00N 65°54' E 012°13'0 0.0
2017-Jun-22 23:29N 65°54' E 012°13'0 0.0
2017-Jun-22 23:00N 65°54' E 012°13'0 0.0
2017-Jun-22 22:30N 65°54' E 012°13'0 0.0
2017-Jun-22 22:00N 65°54' E 012°13'0 0.0
2017-Jun-22 21:30N 65°54' E 012°13'0 0.0
2017-Jun-22 21:00N 65°54' E 012°13'0 0.0
2017-Jun-22 20:30N 65°54' E 012°13'0 0.0
2017-Jun-22 20:00N 65°54' E 012°13'0 0.0
2017-Jun-22 19:30N 65°54' E 012°13'0 0.0
2017-Jun-22 19:00N 65°54' E 012°13'0 0.0
2017-Jun-22 18:30N 65°54' E 012°13'0 0.0
2017-Jun-22 18:00N 65°54' E 012°13'0 0.0
2017-Jun-22 17:30N 65°54' E 012°13'0 0.0
2017-Jun-22 17:00N 65°54' E 012°13'0 0.0
2017-Jun-22 16:30N 65°54' E 012°13'0 0.1
2017-Jun-22 16:00N 65°54' E 012°13'0 0.0
2017-Jun-22 15:30N 65°54' E 012°13'0 0.0
2017-Jun-22 15:00N 65°54' E 012°13'0 0.0
2017-Jun-22 14:30N 65°54' E 012°13'0 0.0
2017-Jun-22 13:30N 65°54' E 012°13'0 0.0
2017-Jun-22 13:00N 65°54' E 012°13'0 0.0
2017-Jun-22 12:30N 65°54' E 012°13'0 0.0
2017-Jun-22 11:59N 65°54' E 012°13'0 0.0
2017-Jun-22 11:30N 65°54' E 012°13'0 0.1
2017-Jun-22 11:00N 65°54' E 012°13'0 0.0
2017-Jun-22 10:30N 65°54' E 012°13'0 0.0
2017-Jun-22 10:00N 65°54' E 012°13'0 0.0
2017-Jun-22 09:30N 65°54' E 012°13'0 0.0
2017-Jun-22 09:00N 65°54' E 012°13'0 0.1
2017-Jun-22 08:30N 65°54' E 012°13'0 0.0
2017-Jun-22 08:00N 65°54' E 012°13'0 0.0
2017-Jun-22 07:29N 65°54' E 012°13'0 0.0
2017-Jun-22 07:00N 65°54' E 012°13'0 0.1
2017-Jun-22 06:30N 65°54' E 012°13'0 0.0
2017-Jun-22 06:00N 65°54' E 012°13'0 0.0
2017-Jun-22 05:30N 65°54' E 012°13'0 0.0
2017-Jun-22 05:00N 65°54' E 012°13'0 0.0
2017-Jun-22 04:30N 65°54' E 012°13'0 0.0
2017-Jun-22 04:00N 65°54' E 012°13'0 0.0
2017-Jun-22 03:30N 65°54' E 012°13'0 0.0
2017-Jun-22 03:00N 65°54' E 012°13'0 0.0
2017-Jun-22 02:30N 65°54' E 012°13'0 0.0
2017-Jun-22 02:00N 65°54' E 012°13'0 0.0
2017-Jun-22 01:30N 65°54' E 012°13'0 0.0
2017-Jun-22 01:00N 65°54' E 012°13'0 0.0
2017-Jun-22 00:30N 65°54' E 012°13'0 0.0
2017-Jun-22 00:00N 65°54' E 012°13'0 0.0
2017-Jun-21 23:30N 65°54' E 012°13'0 0.0
2017-Jun-21 23:00N 65°54' E 012°13'0 0.0
2017-Jun-21 22:30N 65°54' E 012°13'0 0.0
2017-Jun-21 22:00N 65°54' E 012°13'0 0.0
2017-Jun-21 21:30N 65°54' E 012°13'0 0.0
2017-Jun-21 21:00N 65°54' E 012°13'0 0.0
2017-Jun-21 20:30N 65°54' E 012°13'0 0.0
2017-Jun-21 20:00N 65°54' E 012°13'0 0.0
2017-Jun-21 19:30N 65°54' E 012°13'0 0.0
2017-Jun-21 19:00N 65°54' E 012°13'0 0.0
2017-Jun-21 18:30N 65°54' E 012°13'0 0.0
2017-Jun-21 18:00N 65°54' E 012°13'0 0.0
2017-Jun-21 17:30N 65°54' E 012°13'0 0.0
2017-Jun-21 17:00N 65°54' E 012°13'0 0.0
2017-Jun-21 16:30N 65°54' E 012°13'0 0.0
2017-Jun-21 16:00N 65°54' E 012°13'0 0.1
2017-Jun-21 15:30N 65°54' E 012°13'0 0.0
2017-Jun-21 15:00N 65°54' E 012°13'0 0.0
2017-Jun-21 14:30N 65°54' E 012°13'0 0.0
2017-Jun-21 13:30N 65°54' E 012°13'0 0.0
2017-Jun-21 12:59N 65°54' E 012°13'0 0.0
2017-Jun-21 12:29N 65°54' E 012°13'0 0.0
2017-Jun-21 11:59N 65°54' E 012°13'0 0.0
2017-Jun-21 11:29N 65°54' E 012°13'0 0.1
2017-Jun-21 11:00N 65°54' E 012°13'0 0.0
2017-Jun-21 10:29N 65°54' E 012°13'0 0.0
2017-Jun-21 10:00N 65°54' E 012°13'0 0.0
2017-Jun-21 09:30N 65°54' E 012°13'0 0.2
2017-Jun-21 09:00N 65°55' E 012°13'0 0.0
2017-Jun-21 08:30N 65°54' E 012°13'0 0.0
2017-Jun-21 08:00N 65°54' E 012°13'0 0.0
2017-Jun-21 07:30N 65°54' E 012°13'0 0.1
2017-Jun-21 06:57N 65°54' E 012°13'0 0.0
2017-Jun-21 06:30N 65°54' E 012°13'0 0.0
2017-Jun-21 05:59N 65°54' E 012°13'0 0.0
2017-Jun-21 05:30N 65°54' E 012°13'0 0.0
2017-Jun-21 05:00N 65°54' E 012°13'0 0.0
2017-Jun-21 04:30N 65°54' E 012°13'0 0.0
2017-Jun-21 04:00N 65°54' E 012°13'0 0.0
2017-Jun-21 03:30N 65°54' E 012°13'0 0.0
2017-Jun-21 03:00N 65°54' E 012°13'0 0.0
2017-Jun-21 02:30N 65°54' E 012°13'0 0.0
2017-Jun-21 02:00N 65°54' E 012°13'0 0.0
2017-Jun-21 01:29N 65°54' E 012°13'0 0.0
2017-Jun-21 01:00N 65°54' E 012°13'0 0.0
2017-Jun-21 00:30N 65°54' E 012°13'0 0.0
2017-Jun-21 00:00N 65°54' E 012°13'0 0.0
2017-Jun-20 23:31N 65°54' E 012°13'0 0.0
2017-Jun-20 23:00N 65°54' E 012°13'0 0.0
2017-Jun-20 22:30N 65°54' E 012°13'0 0.0
2017-Jun-20 22:00N 65°54' E 012°13'0 0.0
2017-Jun-20 21:30N 65°54' E 012°13'0 0.0
2017-Jun-20 20:59N 65°54' E 012°13'0 0.0
2017-Jun-20 20:30N 65°54' E 012°13'0 0.0
2017-Jun-20 20:00N 65°54' E 012°13'0 0.0
2017-Jun-20 19:29N 65°54' E 012°13'0 0.0
2017-Jun-20 18:59N 65°54' E 012°13'0 0.0
2017-Jun-20 18:30N 65°54' E 012°13'4 7.1
2017-Jun-20 18:00N 65°57' E 012°20'5 9.9
2017-Jun-20 17:30N 66°00' E 012°29'5 9.5
2017-Jun-20 17:00N 66°04' E 012°37'5 9.2
2017-Jun-20 16:29N 66°08' E 012°40'2 3.3
2017-Jun-20 16:00N 66°10' E 012°41'0 0.0
2017-Jun-20 15:30N 66°10' E 012°41'0 0.0
2017-Jun-20 15:00N 66°10' E 012°41'0 0.0
2017-Jun-20 14:00N 66°10' E 012°41'0 0.1
2017-Jun-20 13:30N 66°10' E 012°41'0 0.0
2017-Jun-20 13:00N 66°10' E 012°41'0 0.0
2017-Jun-20 12:31N 66°10' E 012°41'0 0.0
2017-Jun-20 12:00N 66°10' E 012°41'0 0.0
2017-Jun-20 11:30N 66°10' E 012°41'0 0.0
2017-Jun-20 11:00N 66°10' E 012°41'0 0.4
2017-Jun-20 10:30N 66°09' E 012°41'0 0.1
2017-Jun-20 10:00N 66°09' E 012°41'0 0.0
2017-Jun-20 09:30N 66°09' E 012°41'0 0.0
2017-Jun-20 09:00N 66°09' E 012°41'0 0.0
2017-Jun-20 08:31N 66°09' E 012°41'0 0.0
2017-Jun-20 08:01N 66°09' E 012°41'0 0.1
2017-Jun-20 07:30N 66°09' E 012°41'0 0.0
2017-Jun-20 07:00N 66°09' E 012°41'0 0.0
2017-Jun-20 06:30N 66°09' E 012°41'0 0.0
2017-Jun-20 06:00N 66°09' E 012°41'0 0.0
2017-Jun-20 05:31N 66°09' E 012°41'0 0.3
2017-Jun-20 05:00N 66°10' E 012°41'0 0.0
2017-Jun-20 04:30N 66°10' E 012°41'0 0.0
2017-Jun-20 04:00N 66°10' E 012°41'0 0.0
2017-Jun-20 03:30N 66°10' E 012°41'0 0.0
2017-Jun-20 03:00N 66°10' E 012°41'0 0.0
2017-Jun-20 02:31N 66°10' E 012°41'0 0.0
2017-Jun-20 02:00N 66°10' E 012°41'0 0.0
2017-Jun-20 01:31N 66°10' E 012°41'0 0.0
2017-Jun-20 01:00N 66°10' E 012°41'0 0.0
2017-Jun-20 00:30N 66°10' E 012°41'0 0.0
2017-Jun-20 00:00N 66°10' E 012°41'0 0.0
2017-Jun-19 23:31N 66°10' E 012°41'0 0.0
2017-Jun-19 23:00N 66°10' E 012°41'0 0.0
2017-Jun-19 22:30N 66°10' E 012°41'0 0.0
2017-Jun-19 22:00N 66°10' E 012°41'0 0.0
2017-Jun-19 21:30N 66°10' E 012°41'0 0.0
2017-Jun-19 21:01N 66°10' E 012°41'0 0.0
2017-Jun-19 20:30N 66°10' E 012°41'0 0.0
2017-Jun-19 20:00N 66°10' E 012°41'0 0.0
2017-Jun-19 19:30N 66°10' E 012°41'0 0.0
2017-Jun-19 19:00N 66°10' E 012°41'0 0.0
2017-Jun-19 18:31N 66°10' E 012°41'0 0.0
2017-Jun-19 18:00N 66°10' E 012°41'0 0.0
2017-Jun-19 17:30N 66°10' E 012°41'0 0.0
2017-Jun-19 17:00N 66°10' E 012°41'0 0.0
2017-Jun-19 16:30N 66°10' E 012°41'0 0.0
2017-Jun-19 16:01N 66°10' E 012°41'0 0.0
2017-Jun-19 15:30N 66°10' E 012°41'0 0.4
2017-Jun-19 15:00N 66°10' E 012°41'0 0.0
2017-Jun-19 14:00N 66°10' E 012°41'0 0.0
2017-Jun-19 13:30N 66°10' E 012°41'0 0.0
2017-Jun-19 13:00N 66°10' E 012°41'0 0.0
2017-Jun-19 12:30N 66°10' E 012°41'0 0.3
2017-Jun-19 12:00N 66°10' E 012°41'0 0.4
2017-Jun-19 11:30N 66°09' E 012°41'0 0.0
2017-Jun-19 11:00N 66°09' E 012°41'0 0.0
2017-Jun-19 10:30N 66°09' E 012°41'0 0.0
2017-Jun-19 10:00N 66°09' E 012°41'0 0.0
2017-Jun-19 09:30N 66°09' E 012°41'0 0.2
2017-Jun-19 09:00N 66°10' E 012°41'0 0.0
2017-Jun-19 08:30N 66°10' E 012°41'0 0.0
2017-Jun-19 08:00N 66°10' E 012°41'0 0.0
2017-Jun-19 07:29N 66°10' E 012°41'0 0.0
2017-Jun-19 07:00N 66°10' E 012°41'0 0.0
2017-Jun-19 06:30N 66°10' E 012°41'0 0.0
2017-Jun-19 06:00N 66°10' E 012°41'2 4.7
2017-Jun-19 05:30N 66°07' E 012°41'510.5
2017-Jun-19 05:00N 66°03' E 012°33'5 9.7
2017-Jun-19 04:30N 66°01' E 012°23'0 0.0
2017-Jun-19 04:00N 66°01' E 012°23'0 0.0
2017-Jun-19 03:30N 66°01' E 012°23'0 0.0
2017-Jun-19 03:00N 66°01' E 012°23'0 0.0
2017-Jun-19 02:30N 66°01' E 012°23'0 0.0
2017-Jun-19 02:00N 66°01' E 012°23'0 0.0
2017-Jun-19 01:30N 66°01' E 012°23'0 0.0
2017-Jun-19 01:00N 66°01' E 012°23'0 0.0
2017-Jun-19 00:30N 66°01' E 012°23'0 0.0
2017-Jun-19 00:00N 66°01' E 012°23'0 0.0
2017-Jun-18 23:30N 66°01' E 012°23'0 0.0
2017-Jun-18 23:00N 66°01' E 012°23'0 0.0
2017-Jun-18 22:30N 66°01' E 012°23'0 0.0
2017-Jun-18 22:00N 66°01' E 012°23'0 0.0
2017-Jun-18 21:30N 66°01' E 012°23'0 0.0
2017-Jun-18 21:00N 66°01' E 012°23'  

Dump ship's entire track history